This is the latest recevied weather packets stored in our database for station/object ES2ADF-5. If no packets are shown the sender has not sent any weather packets the latest 1 day(s).
| Time | Temp. | Humidity | Pressure | Rain* | Wind** | Luminosity | Snow |
|---|---|---|---|---|---|---|---|
| 1778048802 | 20.56° C | 37% | 1011.8 hPa | 0 mm | - | - | - |
| 1778048201 | 21.11° C | 37% | 1011.9 hPa | 0 mm | - | - | - |
| 1778047901 | 21.11° C | 39% | 1012 hPa | 0 mm | - | - | - |
| 1778047601 | 20.56° C | 39% | 1011.8 hPa | 0 mm | - | - | - |
| 1778047000 | 20.56° C | 40% | 1011.5 hPa | 0 mm | - | - | - |
| 1778046700 | 20.56° C | 43% | 1011.5 hPa | 0 mm | - | - | - |
| 1778045799 | 19.44° C | 46% | 1011.6 hPa | 0 mm | - | - | - |
| 1778045198 | 18.89° C | 48% | 1011.5 hPa | 0 mm | - | - | - |
| 1778044898 | 18.89° C | 49% | 1011.6 hPa | 0 mm | - | - | - |
| 1778044598 | 17.78° C | 51% | 1011.4 hPa | 0 mm | - | - | - |
| 1778043997 | 16.67° C | 53% | 1011.4 hPa | 0 mm | - | - | - |
| 1778043697 | 15.56° C | 55% | 1011.5 hPa | 0 mm | - | - | - |
| 1778043096 | 14.44° C | 58% | 1011.6 hPa | 0 mm | - | - | - |
| 1778042796 | 13.33° C | 61% | 1011.5 hPa | 0 mm | - | - | - |
| 1778042496 | 11.67° C | 65% | 1011.4 hPa | 0 mm | - | - | - |
| 1778041895 | 7.78° C | 78% | 1011.5 hPa | 0 mm | - | - | - |
| 1778041595 | 5.56° C | 81% | 1011.5 hPa | 0 mm | - | - | - |
| 1778041294 | 4.44° C | 81% | 1011.4 hPa | 0 mm | - | - | - |
| 1778040994 | 2.78° C | 82% | 1011.3 hPa | 0 mm | - | - | - |
| 1778040694 | 2.78° C | 81% | 1011.4 hPa | 0 mm | - | - | - |
| 1778040394 | 2.22° C | 81% | 1011.4 hPa | 0 mm | - | - | - |
| 1778039793 | 1.67° C | 82% | 1011.3 hPa | 0 mm | - | - | - |
| 1778039493 | 1.67° C | 82% | 1011 hPa | 0 mm | - | - | - |
| 1778039192 | 1.11° C | 83% | 1011 hPa | 0 mm | - | - | - |
| 1778038892 | 0.56° C | 82% | 1011 hPa | 0 mm | - | - | - |
* Rain latest hour (hover to see other rain measurements)
** Current wind speed in m/s (hover to see current wind gust speed)